Terminal Aerodrome Forecast
Issued by NWS

Home | Current Version | Previous Version | Text Only | Print | Product List | Glossary On
Versions: 1 2 3 4 5 6 7 8 9 10 11 12 13 14
000
FTUS45 KRIW 040540
TAFCOD
TAF
KCOD 040540Z 0406/0506 21008KT P6SM VCSH SCT100
     FM040800 VRB06KT P6SM SCT110
     FM041500 03007KT P6SM BKN250
     FM042000 03011KT P6SM FEW100 SCT250
     FM050200 36010KT P6SM VCTS SCT090CB BKN120
      AMD LTD TO CLD VIS AND WIND=

USA.gov is the U.S. government's official web portal to all federal, state and local government web resources and services.